createdAt,value
2019-05-19T00:02:40.679Z,85.50
2019-05-19T00:05:23.910Z,84.50
2019-05-19T00:08:09.328Z,84.10
2019-05-19T00:10:55.603Z,84.90
2019-05-19T00:13:40.063Z,85.00
2019-05-19T00:16:22.929Z,85.80
2019-05-19T00:19:25.814Z,86.20
2019-05-19T00:21:59.798Z,85.90
2019-05-19T00:24:45.598Z,85.30
2019-05-19T00:27:33.511Z,86.80
2019-05-19T00:30:21.549Z,88.80
2019-05-19T00:33:24.331Z,88.40
2019-05-19T00:36:03.696Z,87.90
2019-05-19T00:38:49.440Z,88.80
2019-05-19T00:41:39.147Z,87.70
2019-05-19T00:44:28.053Z,88.20
2019-05-19T00:47:25.392Z,88.40
2019-05-19T00:50:13.087Z,87.60
2019-05-19T00:53:06.503Z,86.90
2019-05-19T00:56:01.641Z,86.90
2019-05-19T00:58:46.587Z,87.50
2019-05-19T01:01:30.422Z,87.90
2019-05-19T01:04:12.681Z,88.40
2019-05-19T01:06:58.372Z,86.60
2019-05-19T01:09:48.696Z,85.60
2019-05-19T01:12:31.848Z,85.40
2019-05-19T01:15:23.626Z,84.70
2019-05-19T01:18:12.198Z,84.60
2019-05-19T01:20:53.913Z,85.80
2019-05-19T01:23:48.895Z,84.80
2019-05-19T01:26:38.089Z,85.40
2019-05-19T01:29:27.530Z,85.30
2019-05-19T01:32:09.298Z,84.50
2019-05-19T01:34:49.605Z,83.70
2019-05-19T01:37:32.164Z,83.80
2019-05-19T01:40:12.647Z,83.10
2019-05-19T01:42:57.736Z,83.10
2019-05-19T01:45:45.285Z,82.70
2019-05-19T01:48:30.880Z,81.70
2019-05-19T01:51:15.973Z,82.90
2019-05-19T01:54:01.997Z,84.00
2019-05-19T01:56:46.431Z,81.90
2019-05-19T01:59:35.348Z,84.10
2019-05-19T02:02:15.496Z,83.70
2019-05-19T02:04:57.619Z,82.50
2019-05-19T02:07:39.257Z,83.50
2019-05-19T02:10:20.233Z,82.80
2019-05-19T02:13:05.251Z,83.10
2019-05-19T02:15:45.130Z,82.50
2019-05-19T02:18:27.751Z,81.20
2019-05-19T02:21:09.321Z,81.20
2019-05-19T02:23:56.514Z,80.10
2019-05-19T02:26:40.034Z,79.50
2019-05-19T02:29:22.244Z,80.30
2019-05-19T02:32:09.065Z,76.60
2019-05-19T02:34:51.821Z,76.80
2019-05-19T02:37:35.676Z,76.50
2019-05-19T02:40:20.065Z,75.40
2019-05-19T02:43:07.252Z,74.20
2019-05-19T02:45:57.274Z,72.70
2019-05-19T02:48:37.730Z,70.70
2019-05-19T02:51:23.665Z,70.10
2019-05-19T02:54:06.338Z,69.90
2019-05-19T02:56:51.665Z,68.70
2019-05-19T02:59:39.603Z,69.30
2019-05-19T03:02:26.563Z,69.70
2019-05-19T03:05:06.994Z,69.80
2019-05-19T03:07:51.727Z,71.20
2019-05-19T03:10:35.930Z,69.80
2019-05-19T03:13:35.804Z,70.20
2019-05-19T03:16:31.282Z,71.80
2019-05-19T03:19:20.729Z,70.50
2019-05-19T03:22:05.839Z,70.40
2019-05-19T03:25:06.045Z,70.30
2019-05-19T03:27:51.747Z,70.30
2019-05-19T03:30:51.202Z,70.60
2019-05-19T03:33:38.507Z,70.60
2019-05-19T03:36:24.765Z,71.80
2019-05-19T03:39:15.525Z,71.40
2019-05-19T03:42:00.020Z,71.10
2019-05-19T03:45:11.971Z,70.60
2019-05-19T03:48:41.433Z,71.50
2019-05-19T03:51:30.777Z,70.70
2019-05-19T03:54:04.786Z,71.00
2019-05-19T03:56:51.780Z,71.30
2019-05-19T03:59:36.266Z,71.10
2019-05-19T04:02:21.915Z,70.30
2019-05-19T04:05:03.787Z,70.80
2019-05-19T04:07:50.429Z,71.10
2019-05-19T04:10:41.069Z,69.40
2019-05-19T04:13:25.495Z,68.90
2019-05-19T04:16:10.209Z,68.50
2019-05-19T04:19:01.737Z,67.60
2019-05-19T04:21:49.329Z,67.00
2019-05-19T04:24:34.675Z,66.40
2019-05-19T04:27:16.686Z,67.70
2019-05-19T04:29:58.514Z,66.10
2019-05-19T04:32:42.766Z,65.60
2019-05-19T04:35:23.779Z,65.90
2019-05-19T04:38:13.785Z,67.30
2019-05-19T04:40:56.186Z,67.10
2019-05-19T04:43:40.903Z,67.20
2019-05-19T04:46:24.918Z,66.80
2019-05-19T04:49:31.775Z,66.90
2019-05-19T04:52:26.904Z,66.40
2019-05-19T04:55:15.797Z,66.30
2019-05-19T04:58:01.148Z,65.90
2019-05-19T05:00:43.456Z,65.70
2019-05-19T05:03:30.999Z,65.20
2019-05-19T05:06:23.693Z,64.70
2019-05-19T05:09:13.020Z,63.30
2019-05-19T05:11:55.718Z,63.90
2019-05-19T05:14:47.150Z,63.70
2019-05-19T05:17:41.669Z,62.70
2019-05-19T05:20:27.852Z,63.50
2019-05-19T05:23:17.041Z,64.30
2019-05-19T05:26:04.432Z,64.90
2019-05-19T05:28:48.001Z,63.80
2019-05-19T05:31:32.170Z,64.40
2019-05-19T05:34:15.260Z,63.10
2019-05-19T05:37:15.695Z,62.90
2019-05-19T05:40:02.164Z,63.70
2019-05-19T05:42:45.365Z,62.10
2019-05-19T05:45:27.635Z,62.30
2019-05-19T05:48:12.528Z,60.90
2019-05-19T05:51:00.055Z,60.30
2019-05-19T05:53:43.289Z,61.60
2019-05-19T05:56:29.127Z,60.10
2019-05-19T05:59:14.551Z,59.30
2019-05-19T06:02:00.971Z,59.40
2019-05-19T06:04:52.319Z,59.80
2019-05-19T06:07:35.046Z,59.20
2019-05-19T06:10:18.918Z,60.00
2019-05-19T06:13:03.325Z,60.00
2019-05-19T06:15:50.487Z,59.80
2019-05-19T06:18:32.127Z,60.20
2019-05-19T06:21:19.164Z,59.50
2019-05-19T06:24:00.336Z,60.00
2019-05-19T06:26:45.656Z,60.90
2019-05-19T06:29:30.869Z,60.10
2019-05-19T06:32:33.350Z,58.90
2019-05-19T06:35:17.332Z,58.90
2019-05-19T06:38:06.351Z,58.40
2019-05-19T06:40:53.804Z,58.30
2019-05-19T06:43:41.171Z,56.70
2019-05-19T06:46:25.662Z,57.10
2019-05-19T06:49:15.631Z,56.90
2019-05-19T06:52:09.025Z,56.70
2019-05-19T06:55:12.108Z,58.40
2019-05-19T06:57:58.077Z,57.70
2019-05-19T07:00:44.343Z,57.60
2019-05-19T07:03:44.269Z,57.10
2019-05-19T07:06:34.743Z,56.30
2019-05-19T07:09:17.468Z,56.80
2019-05-19T07:12:01.749Z,56.80
2019-05-19T07:14:57.193Z,57.00
2019-05-19T07:17:40.491Z,57.10
2019-05-19T07:20:27.084Z,57.10
2019-05-19T07:23:11.465Z,56.90
2019-05-19T07:25:53.436Z,56.90
2019-05-19T07:28:40.289Z,56.30
2019-05-19T07:31:39.361Z,56.40
2019-05-19T07:34:27.087Z,56.50
2019-05-19T07:37:13.651Z,56.40
2019-05-19T07:39:59.198Z,56.60
2019-05-19T07:42:47.462Z,56.80
2019-05-19T07:45:30.646Z,57.10
2019-05-19T07:48:26.149Z,57.90
2019-05-19T07:51:12.914Z,57.30
2019-05-19T07:53:55.437Z,58.00
2019-05-19T07:56:57.377Z,58.00
2019-05-19T07:59:46.174Z,56.70
2019-05-19T08:02:25.861Z,57.20
2019-05-19T08:05:10.756Z,56.80
2019-05-19T08:07:54.344Z,56.50
2019-05-19T08:10:41.988Z,56.70
2019-05-19T08:13:30.801Z,57.00
2019-05-19T08:16:16.518Z,56.40
2019-05-19T08:19:03.711Z,56.80
2019-05-19T08:21:53.487Z,56.10
2019-05-19T08:24:33.255Z,55.40
2019-05-19T08:27:14.700Z,55.50
2019-05-19T08:29:57.005Z,54.80
2019-05-19T08:32:39.487Z,54.50
2019-05-19T08:35:24.620Z,54.30
2019-05-19T08:38:15.132Z,54.00
2019-05-19T08:41:00.626Z,54.60
2019-05-19T08:43:45.348Z,54.30
2019-05-19T08:46:29.920Z,54.00
2019-05-19T08:49:13.033Z,54.50
2019-05-19T08:51:53.005Z,55.10
2019-05-19T08:54:34.712Z,54.00
2019-05-19T08:57:18.330Z,54.60
2019-05-19T09:00:06.945Z,53.80
2019-05-19T09:02:49.526Z,54.40
2019-05-19T09:05:36.467Z,53.60
2019-05-19T09:08:22.060Z,52.70
2019-05-19T09:11:01.136Z,51.50
2019-05-19T09:13:46.194Z,51.20
2019-05-19T09:16:39.293Z,52.30
2019-05-19T09:19:23.773Z,52.00
2019-05-19T09:22:14.005Z,51.50
2019-05-19T09:24:57.420Z,51.60
2019-05-19T09:27:40.099Z,51.50
2019-05-19T09:30:20.588Z,52.40
2019-05-19T09:33:05.830Z,52.70
2019-05-19T09:35:51.278Z,51.20
2019-05-19T09:38:31.705Z,51.40
2019-05-19T09:41:15.088Z,50.80
2019-05-19T09:44:00.336Z,51.60
2019-05-19T09:46:42.081Z,51.30
2019-05-19T09:49:41.009Z,51.20
2019-05-19T09:52:29.357Z,51.20
2019-05-19T09:55:11.795Z,52.90
2019-05-19T09:57:52.023Z,51.50
2019-05-19T10:00:33.101Z,51.50
2019-05-19T10:03:25.234Z,50.90
2019-05-19T10:06:09.043Z,50.70
2019-05-19T10:09:06.398Z,51.30
2019-05-19T10:12:12.844Z,49.60
2019-05-19T10:14:57.069Z,50.10
2019-05-19T10:17:36.424Z,50.70
2019-05-19T10:20:18.566Z,49.60
2019-05-19T10:22:59.289Z,49.20
2019-05-19T10:25:41.549Z,49.50
2019-05-19T10:28:23.168Z,49.20
2019-05-19T10:31:05.809Z,49.40
2019-05-19T10:33:47.755Z,48.90
2019-05-19T10:36:27.411Z,49.80
2019-05-19T10:39:15.247Z,49.40
2019-05-19T10:42:05.178Z,49.50
2019-05-19T10:44:48.021Z,49.00
2019-05-19T10:47:28.546Z,49.00
2019-05-19T10:50:11.167Z,48.90
2019-05-19T10:52:50.718Z,49.20
2019-05-19T10:55:37.476Z,48.90
2019-05-19T10:58:20.873Z,49.00
2019-05-19T11:01:03.217Z,49.80
2019-05-19T11:03:46.652Z,51.30
2019-05-19T11:06:32.741Z,50.60
2019-05-19T11:09:16.075Z,52.60
2019-05-19T11:11:59.487Z,53.50
2019-05-19T11:14:45.384Z,53.20
2019-05-19T11:17:28.500Z,52.50
2019-05-19T11:20:15.162Z,53.00
2019-05-19T11:22:59.400Z,53.00
2019-05-19T11:25:51.035Z,53.00
2019-05-19T11:28:27.486Z,52.40
2019-05-19T11:31:09.621Z,52.10
2019-05-19T11:33:53.963Z,51.70
2019-05-19T11:36:37.201Z,51.90
2019-05-19T11:39:17.397Z,51.90
2019-05-19T11:42:10.101Z,52.40
2019-05-19T11:44:54.506Z,51.50
2019-05-19T11:47:37.608Z,53.30
2019-05-19T11:50:18.606Z,53.10
2019-05-19T11:53:00.528Z,52.70
2019-05-19T11:55:48.322Z,52.30
2019-05-19T11:58:33.806Z,52.30
2019-05-19T12:01:21.724Z,52.70
2019-05-19T12:04:04.223Z,51.10
2019-05-19T12:06:49.736Z,51.30
2019-05-19T12:09:32.930Z,51.10
2019-05-19T12:12:18.025Z,51.40
2019-05-19T12:15:06.440Z,51.20
2019-05-19T12:17:51.583Z,51.40
2019-05-19T12:20:36.306Z,51.40
2019-05-19T12:23:21.590Z,51.30
2019-05-19T12:26:22.193Z,51.60
2019-05-19T12:28:55.130Z,52.30
2019-05-19T12:31:38.464Z,51.70
2019-05-19T12:34:28.888Z,51.70
2019-05-19T12:37:18.646Z,51.60
2019-05-19T12:40:22.839Z,51.20
2019-05-19T12:43:13.837Z,50.70
2019-05-19T12:46:14.819Z,51.10
2019-05-19T12:48:56.456Z,51.10
2019-05-19T12:51:44.676Z,51.80
2019-05-19T12:54:38.968Z,51.80
2019-05-19T12:57:21.427Z,51.10
2019-05-19T13:00:08.163Z,50.70
2019-05-19T13:02:54.922Z,50.30
2019-05-19T13:05:38.253Z,51.50
2019-05-19T13:08:25.721Z,53.00
2019-05-19T13:11:28.606Z,54.50
2019-05-19T13:14:25.894Z,55.90
2019-05-19T13:17:14.191Z,58.10
2019-05-19T13:19:58.131Z,59.20
2019-05-19T13:23:03.183Z,60.30
2019-05-19T13:28:45.733Z,62.50
2019-05-19T13:31:33.301Z,63.10
2019-05-19T13:34:16.943Z,63.30
2019-05-19T13:37:00.413Z,63.30
2019-05-19T13:39:45.545Z,63.70
2019-05-19T13:42:28.431Z,64.30
2019-05-19T13:45:18.428Z,64.90
2019-05-19T13:48:22.485Z,65.20
2019-05-19T13:51:12.183Z,65.50
2019-05-19T13:53:55.516Z,65.40
2019-05-19T13:56:40.283Z,66.30
2019-05-19T13:59:31.341Z,65.40
2019-05-19T14:02:22.333Z,65.50
2019-05-19T14:05:13.372Z,66.30
2019-05-19T14:08:02.457Z,66.60
2019-05-19T14:10:55.633Z,66.60
2019-05-19T14:13:41.706Z,66.40
2019-05-19T14:16:36.474Z,65.70
2019-05-19T14:19:27.885Z,65.70
2019-05-19T14:22:23.620Z,65.50
2019-05-19T14:25:11.567Z,65.00
2019-05-19T14:27:55.922Z,64.80
2019-05-19T14:30:44.721Z,64.80
2019-05-19T14:33:29.604Z,64.90
2019-05-19T14:36:19.335Z,64.50
2019-05-19T14:39:13.969Z,64.60
2019-05-19T14:42:01.198Z,63.50
2019-05-19T14:44:42.311Z,63.50
2019-05-19T14:47:39.370Z,64.40
2019-05-19T14:50:41.102Z,63.30
2019-05-19T14:53:38.797Z,63.10
2019-05-19T14:56:50.794Z,64.20
2019-05-19T14:59:42.153Z,64.40
2019-05-19T15:02:39.187Z,66.00
2019-05-19T15:05:27.204Z,66.40
2019-05-19T15:08:18.883Z,67.20
2019-05-19T15:10:57.935Z,67.30
2019-05-19T15:13:51.969Z,67.90
2019-05-19T15:16:51.743Z,67.60
2019-05-19T15:19:47.286Z,67.50
2019-05-19T15:22:45.066Z,68.10
2019-05-19T15:25:31.821Z,68.30
2019-05-19T15:28:17.712Z,67.80
2019-05-19T15:31:05.753Z,68.50
2019-05-19T15:33:49.560Z,68.40
2019-05-19T15:36:38.821Z,68.50
2019-05-19T15:39:31.284Z,67.80
2019-05-19T15:42:31.576Z,68.20
2019-05-19T15:45:17.316Z,68.40
2019-05-19T15:48:24.358Z,68.70
2019-05-19T15:51:11.048Z,69.50
2019-05-19T15:54:02.421Z,69.90
2019-05-19T15:56:44.569Z,70.10
2019-05-19T15:59:38.281Z,70.40
2019-05-19T16:02:24.825Z,70.10
2019-05-19T16:05:13.515Z,70.40
2019-05-19T16:08:00.053Z,70.10
2019-05-19T16:10:42.887Z,70.40
2019-05-19T16:13:22.851Z,70.00
2019-05-19T16:16:17.588Z,70.40
2019-05-19T16:19:04.637Z,70.30
2019-05-19T16:21:56.932Z,70.00
2019-05-19T16:24:40.096Z,69.10
2019-05-19T16:27:24.280Z,69.20
2019-05-19T16:30:07.793Z,69.60
2019-05-19T16:32:50.609Z,70.00
2019-05-19T16:35:33.948Z,69.80
2019-05-19T16:38:17.928Z,69.40
2019-05-19T16:40:59.101Z,69.70
2019-05-19T16:43:47.051Z,69.50
2019-05-19T16:46:28.979Z,69.70
2019-05-19T16:49:14.575Z,70.10
2019-05-19T16:52:00.434Z,69.80
2019-05-19T16:54:46.255Z,69.90
2019-05-19T16:57:33.061Z,69.40
2019-05-19T17:00:13.846Z,68.60
2019-05-19T17:02:56.132Z,69.10
2019-05-19T17:05:42.341Z,69.60
2019-05-19T17:08:26.680Z,69.40
2019-05-19T17:11:17.980Z,69.30
2019-05-19T17:13:52.542Z,69.40
2019-05-19T17:16:34.616Z,69.60
2019-05-19T17:19:16.019Z,70.00
2019-05-19T17:21:59.151Z,69.40
2019-05-19T17:24:43.147Z,69.40
2019-05-19T17:27:26.968Z,69.00
2019-05-19T17:30:12.024Z,69.20
2019-05-19T17:32:54.442Z,69.00
2019-05-19T17:35:35.097Z,68.80
2019-05-19T17:38:22.441Z,69.00
2019-05-19T17:41:08.098Z,69.90
2019-05-19T17:43:50.116Z,69.90
2019-05-19T17:46:30.440Z,69.30
2019-05-19T17:49:17.575Z,69.40
2019-05-19T17:52:01.493Z,69.60
2019-05-19T17:54:42.595Z,69.60
2019-05-19T17:57:26.845Z,69.80
2019-05-19T18:00:10.295Z,69.80
2019-05-19T18:02:50.935Z,68.90
2019-05-19T18:05:35.849Z,68.70
2019-05-19T18:08:14.843Z,68.90
2019-05-19T18:10:56.178Z,69.20
2019-05-19T18:13:39.007Z,69.00
2019-05-19T18:16:22.970Z,69.00
2019-05-19T18:19:07.113Z,69.20
2019-05-19T18:21:49.721Z,69.70
2019-05-19T18:24:31.956Z,69.80
2019-05-19T18:27:11.842Z,70.10
2019-05-19T18:29:55.143Z,69.50
2019-05-19T18:32:37.564Z,69.10
2019-05-19T18:35:18.513Z,68.80
2019-05-19T18:38:01.942Z,68.60
2019-05-19T18:40:41.917Z,69.40
2019-05-19T18:43:23.854Z,69.20
2019-05-19T18:46:05.708Z,69.20
2019-05-19T18:48:46.826Z,69.20
2019-05-19T18:51:29.094Z,69.50
2019-05-19T18:54:15.285Z,69.40
2019-05-19T18:56:58.528Z,69.80
2019-05-19T18:59:47.318Z,69.80
2019-05-19T19:02:37.687Z,69.90
2019-05-19T19:09:10.124Z,70.20
2019-05-19T19:11:55.804Z,70.30
2019-05-19T19:17:52.505Z,70.90
2019-05-19T19:20:34.108Z,70.80
2019-05-19T19:23:31.038Z,71.10
2019-05-19T19:26:17.389Z,71.20
2019-05-19T19:28:58.702Z,71.40
2019-05-19T19:31:59.682Z,71.50
2019-05-19T19:34:43.186Z,71.30
2019-05-19T19:37:55.188Z,71.40
2019-05-19T19:40:49.095Z,71.40
2019-05-19T19:46:55.434Z,70.00
2019-05-19T19:49:37.219Z,70.70
2019-05-19T19:52:19.837Z,71.00
2019-05-19T19:55:04.457Z,71.10
2019-05-19T19:57:48.840Z,71.40
2019-05-19T20:00:42.882Z,72.30
2019-05-19T20:03:25.055Z,71.50
2019-05-19T20:06:06.057Z,71.50
2019-05-19T20:08:47.763Z,71.80
2019-05-19T20:11:31.582Z,71.80
2019-05-19T20:14:15.683Z,72.20
2019-05-19T20:16:59.789Z,72.10
2019-05-19T20:19:40.604Z,72.30
2019-05-19T20:22:27.070Z,72.20
2019-05-19T20:25:07.735Z,72.40
2019-05-19T20:27:49.827Z,72.40
2019-05-19T20:30:36.038Z,72.40
2019-05-19T20:33:20.518Z,72.80
2019-05-19T20:36:03.555Z,73.10
2019-05-19T20:38:47.905Z,73.10
2019-05-19T20:41:31.423Z,72.90
2019-05-19T20:44:15.969Z,72.60
2019-05-19T20:46:57.856Z,72.40
2019-05-19T20:49:44.490Z,72.70
2019-05-19T20:52:27.413Z,73.20
2019-05-19T20:55:10.344Z,73.00
2019-05-19T20:57:53.123Z,72.80
2019-05-19T21:00:49.552Z,73.00
2019-05-19T21:03:21.660Z,73.20
2019-05-19T21:06:04.651Z,73.30
2019-05-19T21:08:49.179Z,74.20
2019-05-19T21:11:32.226Z,73.20
2019-05-19T21:14:14.907Z,73.10
2019-05-19T21:17:00.357Z,73.30
2019-05-19T21:19:42.587Z,73.30
2019-05-19T21:22:24.757Z,72.50
2019-05-19T21:25:08.090Z,71.70
2019-05-19T21:27:53.106Z,72.40
2019-05-19T21:30:36.585Z,72.60
2019-05-19T21:33:25.343Z,72.90
2019-05-19T21:36:08.333Z,73.00
2019-05-19T21:38:52.339Z,73.00
2019-05-19T21:41:33.329Z,73.10
2019-05-19T21:44:14.392Z,73.20
2019-05-19T21:46:57.556Z,72.80
2019-05-19T21:49:41.584Z,72.40
2019-05-19T21:52:24.870Z,71.90
2019-05-19T21:55:06.485Z,71.80
2019-05-19T21:57:48.455Z,71.70
2019-05-19T22:00:31.922Z,71.80
2019-05-19T22:03:14.755Z,72.70
2019-05-19T22:06:01.372Z,72.80
2019-05-19T22:08:39.825Z,73.20
2019-05-19T22:11:22.584Z,73.30
2019-05-19T22:14:03.748Z,73.30
2019-05-19T22:16:47.805Z,73.30
2019-05-19T22:19:32.651Z,73.50
2019-05-19T22:22:13.869Z,73.70
2019-05-19T22:24:58.090Z,73.70
2019-05-19T22:27:43.036Z,73.70
2019-05-19T22:30:23.088Z,72.90
2019-05-19T22:33:07.859Z,72.80
2019-05-19T22:35:52.009Z,72.70
2019-05-19T22:38:36.645Z,73.30
2019-05-19T22:41:18.655Z,73.20
2019-05-19T22:44:00.408Z,73.30
2019-05-19T22:46:46.135Z,73.50
2019-05-19T22:49:27.912Z,73.40
2019-05-19T22:52:12.430Z,73.40
2019-05-19T22:54:54.062Z,73.40
2019-05-19T22:57:35.695Z,72.90
2019-05-19T23:00:17.874Z,72.20
2019-05-19T23:02:59.600Z,72.50
2019-05-19T23:05:41.893Z,72.10
2019-05-19T23:08:24.554Z,72.20
2019-05-19T23:11:11.990Z,72.70
2019-05-19T23:13:52.111Z,72.80
2019-05-19T23:16:36.680Z,72.90
2019-05-19T23:19:20.776Z,72.90
2019-05-19T23:22:06.764Z,73.10
2019-05-19T23:24:53.509Z,73.90
2019-05-19T23:27:40.767Z,73.00
2019-05-19T23:30:24.260Z,72.90
2019-05-19T23:33:07.478Z,73.10
2019-05-19T23:35:55.507Z,73.80
2019-05-19T23:38:35.218Z,73.30
2019-05-19T23:41:21.387Z,73.00
2019-05-19T23:44:01.409Z,74.10
2019-05-19T23:46:46.006Z,73.60
2019-05-19T23:49:28.098Z,73.80
2019-05-19T23:52:10.827Z,74.00
2019-05-19T23:54:54.338Z,73.20
2019-05-19T23:57:38.148Z,73.70
